ダルエスサラーム の空港の天気 - METARとTAF

ジュリウス・ニエレレ国際空港(ダルエスサラーム) ( HTDA / DAR ) - タンザニア ダルエスサラーム
飛行場実況気象(Metar)
観測時間08/11 08:00 EAT (08/11 05:00 UTC)
風向・風速南南西 3m/s
視程10km以上
天気現象
少しの雲 雲底高度 340m
全天の4割程度の雲 雲底高度 400m
気温-
湿度-
気圧1017hPa
METARHTDA 110500Z 21005KT 9999 FEW011 SCT013 22/21Q1017 NOSIG
過去の天気等 Google飛行場航空写真 Wunderground天気予報

過去48時間のMETAR

飛行場予報(TAF)
発表時間: 8/11 08:00 EAT (8/11 05:00 UTC)
予報対象時間: 11日9時 EAT ~ 12日15時 EAT
風向・風速南 5m/s
視程10km以上
全天の8割程度の雲 雲底高度 820m
11日12時 EAT ~ 11日15時 EAT に徐々に
風向・風速東南東 5m/s
TAF HTDA 110500Z 1106/1212 17010KT 9999 BKN027
BECMG 1109/1112 11010KT